sensor_id;sensor_type;location;lat;lon;timestamp;pressure;altitude;pressure_sealevel;temperature;humidity
50774;BME280;36745;48.544;8.918;2022-07-15T00:01:04;97647.88;;;17.47;51.46
50774;BME280;36745;48.544;8.918;2022-07-15T00:04:05;97656.69;;;17.40;52.47
50774;BME280;36745;48.544;8.918;2022-07-15T00:07:06;97655.41;;;17.41;52.18
50774;BME280;36745;48.544;8.918;2022-07-15T00:10:06;97656.78;;;17.31;52.33
50774;BME280;36745;48.544;8.918;2022-07-15T00:13:18;97653.13;;;17.25;52.65
50774;BME280;36745;48.544;8.918;2022-07-15T00:16:19;97644.00;;;17.10;52.53
50774;BME280;36745;48.544;8.918;2022-07-15T00:19:19;97642.59;;;16.99;53.35
50774;BME280;36745;48.544;8.918;2022-07-15T00:22:20;97647.41;;;16.99;53.20
50774;BME280;36745;48.544;8.918;2022-07-15T00:25:20;97637.97;;;16.96;53.66
50774;BME280;36745;48.544;8.918;2022-07-15T00:28:21;97640.19;;;16.92;53.58
50774;BME280;36745;48.544;8.918;2022-07-15T00:31:21;97649.31;;;16.93;52.91
50774;BME280;36745;48.544;8.918;2022-07-15T00:34:22;97648.56;;;16.78;53.36
50774;BME280;36745;48.544;8.918;2022-07-15T00:37:22;97649.31;;;16.78;53.92
50774;BME280;36745;48.544;8.918;2022-07-15T00:40:22;97656.44;;;16.79;53.46
50774;BME280;36745;48.544;8.918;2022-07-15T00:43:23;97652.97;;;16.84;53.59
50774;BME280;36745;48.544;8.918;2022-07-15T00:46:24;97646.84;;;16.80;53.31
50774;BME280;36745;48.544;8.918;2022-07-15T00:49:24;97653.47;;;16.68;53.59
50774;BME280;36745;48.544;8.918;2022-07-15T00:52:25;97648.56;;;16.63;53.40
50774;BME280;36745;48.544;8.918;2022-07-15T00:55:29;97650.28;;;16.60;53.71
50774;BME280;36745;48.544;8.918;2022-07-15T00:58:32;97646.41;;;16.43;53.80
50774;BME280;36745;48.544;8.918;2022-07-15T01:01:36;97646.75;;;16.36;54.04
50774;BME280;36745;48.544;8.918;2022-07-15T01:04:38;97648.31;;;16.37;53.96
50774;BME280;36745;48.544;8.918;2022-07-15T01:07:39;97640.78;;;16.29;54.46
50774;BME280;36745;48.544;8.918;2022-07-15T01:10:40;97651.81;;;16.23;54.81
50774;BME280;36745;48.544;8.918;2022-07-15T01:13:41;97655.91;;;16.13;55.04
50774;BME280;36745;48.544;8.918;2022-07-15T01:16:41;97651.47;;;16.06;54.77
50774;BME280;36745;48.544;8.918;2022-07-15T01:19:42;97658.00;;;16.03;55.08
50774;BME280;36745;48.544;8.918;2022-07-15T01:22:42;97659.56;;;16.04;55.15
50774;BME280;36745;48.544;8.918;2022-07-15T01:25:43;97660.13;;;16.08;54.63
50774;BME280;36745;48.544;8.918;2022-07-15T01:28:44;97662.38;;;15.95;55.19
50774;BME280;36745;48.544;8.918;2022-07-15T01:31:45;97660.97;;;15.76;55.79
50774;BME280;36745;48.544;8.918;2022-07-15T01:34:46;97669.97;;;15.71;56.26
50774;BME280;36745;48.544;8.918;2022-07-15T01:37:49;97667.50;;;15.73;55.92
50774;BME280;36745;48.544;8.918;2022-07-15T01:40:49;97671.22;;;15.70;55.39
50774;BME280;36745;48.544;8.918;2022-07-15T01:43:50;97661.50;;;15.65;55.70
50774;BME280;36745;48.544;8.918;2022-07-15T01:46:50;97668.63;;;15.66;55.75
50774;BME280;36745;48.544;8.918;2022-07-15T01:49:50;97670.94;;;15.68;56.15
50774;BME280;36745;48.544;8.918;2022-07-15T01:52:51;97666.28;;;15.65;56.29
50774;BME280;36745;48.544;8.918;2022-07-15T01:55:52;97666.59;;;15.58;55.97
50774;BME280;36745;48.544;8.918;2022-07-15T01:58:52;97664.06;;;15.45;56.47
50774;BME280;36745;48.544;8.918;2022-07-15T02:01:55;97663.63;;;15.37;56.65
50774;BME280;36745;48.544;8.918;2022-07-15T02:04:56;97672.28;;;15.40;56.73
50774;BME280;36745;48.544;8.918;2022-07-15T02:07:56;97668.00;;;15.29;56.20
50774;BME280;36745;48.544;8.918;2022-07-15T02:10:57;97661.22;;;15.21;56.31
50774;BME280;36745;48.544;8.918;2022-07-15T02:13:58;97664.63;;;15.16;56.96
50774;BME280;36745;48.544;8.918;2022-07-15T02:17:00;97651.97;;;15.15;56.58
50774;BME280;36745;48.544;8.918;2022-07-15T02:20:01;97661.28;;;15.03;56.60
50774;BME280;36745;48.544;8.918;2022-07-15T02:23:01;97652.50;;;14.95;57.68
50774;BME280;36745;48.544;8.918;2022-07-15T02:26:02;97646.16;;;14.95;58.05
50774;BME280;36745;48.544;8.918;2022-07-15T02:29:02;97656.34;;;14.98;57.75
50774;BME280;36745;48.544;8.918;2022-07-15T02:32:03;97649.13;;;14.91;57.81
50774;BME280;36745;48.544;8.918;2022-07-15T02:35:04;97654.69;;;14.82;58.17
50774;BME280;36745;48.544;8.918;2022-07-15T02:38:04;97656.72;;;14.73;58.33
50774;BME280;36745;48.544;8.918;2022-07-15T02:41:05;97652.56;;;14.68;58.15
50774;BME280;36745;48.544;8.918;2022-07-15T02:44:05;97646.41;;;14.55;58.43
50774;BME280;36745;48.544;8.918;2022-07-15T02:47:06;97653.94;;;14.45;58.42
50774;BME280;36745;48.544;8.918;2022-07-15T02:50:07;97653.38;;;14.32;58.95
50774;BME280;36745;48.544;8.918;2022-07-15T02:53:08;97652.72;;;14.28;59.55
50774;BME280;36745;48.544;8.918;2022-07-15T02:56:08;97646.56;;;14.24;59.74
50774;BME280;36745;48.544;8.918;2022-07-15T02:59:09;97653.06;;;14.21;59.54
50774;BME280;36745;48.544;8.918;2022-07-15T03:02:09;97649.03;;;14.13;59.69
50774;BME280;36745;48.544;8.918;2022-07-15T03:05:10;97659.06;;;14.10;59.79
50774;BME280;36745;48.544;8.918;2022-07-15T03:08:12;97657.97;;;13.99;60.29
50774;BME280;36745;48.544;8.918;2022-07-15T03:11:12;97657.34;;;13.86;60.47
50774;BME280;36745;48.544;8.918;2022-07-15T03:14:13;97666.31;;;13.90;60.39
50774;BME280;36745;48.544;8.918;2022-07-15T03:17:13;97666.59;;;13.92;60.57
50774;BME280;36745;48.544;8.918;2022-07-15T03:20:14;97677.41;;;13.90;60.77
50774;BME280;36745;48.544;8.918;2022-07-15T03:23:14;97674.94;;;13.92;60.87
50774;BME280;36745;48.544;8.918;2022-07-15T03:26:16;97671.03;;;13.80;61.12
50774;BME280;36745;48.544;8.918;2022-07-15T03:29:16;97674.13;;;13.73;60.85
50774;BME280;36745;48.544;8.918;2022-07-15T03:32:17;97673.31;;;13.54;61.57
50774;BME280;36745;48.544;8.918;2022-07-15T03:35:19;97672.41;;;13.57;61.56
50774;BME280;36745;48.544;8.918;2022-07-15T03:38:20;97668.53;;;13.55;61.66
50774;BME280;36745;48.544;8.918;2022-07-15T03:41:21;97668.53;;;13.55;61.62
50774;BME280;36745;48.544;8.918;2022-07-15T03:44:22;97673.59;;;13.47;61.84
50774;BME280;36745;48.544;8.918;2022-07-15T03:47:22;97655.41;;;13.46;61.95
50774;BME280;36745;48.544;8.918;2022-07-15T03:50:23;97661.09;;;13.43;62.44
50774;BME280;36745;48.544;8.918;2022-07-15T03:53:23;97680.06;;;13.44;61.89
50774;BME280;36745;48.544;8.918;2022-07-15T03:56:24;97670.34;;;13.40;62.16
50774;BME280;36745;48.544;8.918;2022-07-15T03:59:25;97685.28;;;13.42;61.74
50774;BME280;36745;48.544;8.918;2022-07-15T04:02:25;97675.69;;;13.34;62.79
50774;BME280;36745;48.544;8.918;2022-07-15T04:05:25;97675.50;;;13.28;62.99
50774;BME280;36745;48.544;8.918;2022-07-15T04:08:26;97672.59;;;13.32;62.06
50774;BME280;36745;48.544;8.918;2022-07-15T04:11:26;97682.06;;;13.13;62.36
50774;BME280;36745;48.544;8.918;2022-07-15T04:14:27;97684.13;;;13.00;62.73
50774;BME280;36745;48.544;8.918;2022-07-15T04:17:27;97680.94;;;13.01;63.56
50774;BME280;36745;48.544;8.918;2022-07-15T04:20:28;97684.50;;;13.11;63.12
50774;BME280;36745;48.544;8.918;2022-07-15T04:23:28;97689.06;;;12.96;63.24
50774;BME280;36745;48.544;8.918;2022-07-15T04:26:29;97699.22;;;12.99;63.48
50774;BME280;36745;48.544;8.918;2022-07-15T04:29:29;97690.59;;;12.97;63.40
50774;BME280;36745;48.544;8.918;2022-07-15T04:32:30;97690.31;;;13.04;63.57
50774;BME280;36745;48.544;8.918;2022-07-15T04:35:30;97679.88;;;13.08;63.29
50774;BME280;36745;48.544;8.918;2022-07-15T04:38:30;97690.69;;;13.15;63.70
50774;BME280;36745;48.544;8.918;2022-07-15T04:41:31;97686.16;;;13.30;63.93
50774;BME280;36745;48.544;8.918;2022-07-15T04:44:32;97685.03;;;13.58;63.24
50774;BME280;36745;48.544;8.918;2022-07-15T04:47:33;97683.09;;;13.95;63.37
50774;BME280;36745;48.544;8.918;2022-07-15T04:50:33;97686.53;;;14.36;63.01
50774;BME280;36745;48.544;8.918;2022-07-15T04:53:46;97685.44;;;14.61;62.37
50774;BME280;36745;48.544;8.918;2022-07-15T04:56:46;97698.69;;;15.02;61.92
50774;BME280;36745;48.544;8.918;2022-07-15T04:59:47;97692.03;;;15.42;61.38
50774;BME280;36745;48.544;8.918;2022-07-15T05:02:47;97687.50;;;15.86;60.71
50774;BME280;36745;48.544;8.918;2022-07-15T05:05:48;97694.25;;;16.42;60.20
50774;BME280;36745;48.544;8.918;2022-07-15T05:08:48;97692.53;;;16.97;59.50
50774;BME280;36745;48.544;8.918;2022-07-15T05:11:49;97698.63;;;17.60;58.61
50774;BME280;36745;48.544;8.918;2022-07-15T05:14:49;97693.25;;;17.92;57.43
50774;BME280;36745;48.544;8.918;2022-07-15T05:17:50;97692.63;;;18.02;56.57
50774;BME280;36745;48.544;8.918;2022-07-15T05:20:50;97694.31;;;18.35;56.36
50774;BME280;36745;48.544;8.918;2022-07-15T05:23:51;97699.06;;;18.49;55.48
50774;BME280;36745;48.544;8.918;2022-07-15T05:26:51;97693.66;;;18.65;55.28
50774;BME280;36745;48.544;8.918;2022-07-15T05:29:51;97695.66;;;18.85;54.54
50774;BME280;36745;48.544;8.918;2022-07-15T05:32:52;97689.81;;;19.15;54.42
50774;BME280;36745;48.544;8.918;2022-07-15T05:35:52;97698.53;;;19.48;54.32
50774;BME280;36745;48.544;8.918;2022-07-15T05:38:53;97703.31;;;19.79;54.17
50774;BME280;36745;48.544;8.918;2022-07-15T05:41:53;97701.03;;;19.77;53.33
50774;BME280;36745;48.544;8.918;2022-07-15T05:44:54;97699.47;;;19.71;52.41
50774;BME280;36745;48.544;8.918;2022-07-15T05:47:54;97700.91;;;19.61;51.84
50774;BME280;36745;48.544;8.918;2022-07-15T05:50:55;97700.16;;;19.60;51.91
50774;BME280;36745;48.544;8.918;2022-07-15T05:53:55;97687.97;;;19.69;51.52
50774;BME280;36745;48.544;8.918;2022-07-15T05:56:56;97703.47;;;19.64;51.60
50774;BME280;36745;48.544;8.918;2022-07-15T05:59:56;97700.19;;;19.66;51.72
50774;BME280;36745;48.544;8.918;2022-07-15T06:02:57;97702.78;;;19.75;51.56
50774;BME280;36745;48.544;8.918;2022-07-15T06:05:57;97706.78;;;20.00;51.44
50774;BME280;36745;48.544;8.918;2022-07-15T06:08:58;97703.88;;;20.25;50.89
50774;BME280;36745;48.544;8.918;2022-07-15T06:11:58;97714.34;;;20.30;49.79
50774;BME280;36745;48.544;8.918;2022-07-15T06:14:58;97715.16;;;20.37;49.99
50774;BME280;36745;48.544;8.918;2022-07-15T06:17:59;97707.28;;;20.52;49.95
50774;BME280;36745;48.544;8.918;2022-07-15T06:21:00;97705.72;;;20.40;49.58
50774;BME280;36745;48.544;8.918;2022-07-15T06:24:01;97709.34;;;20.57;49.09
50774;BME280;36745;48.544;8.918;2022-07-15T06:27:02;97711.63;;;20.47;48.61
50774;BME280;36745;48.544;8.918;2022-07-15T06:30:03;97709.81;;;20.50;47.79
50774;BME280;36745;48.544;8.918;2022-07-15T06:33:04;97714.47;;;20.64;47.81
50774;BME280;36745;48.544;8.918;2022-07-15T06:36:04;97711.72;;;20.81;48.17
50774;BME280;36745;48.544;8.918;2022-07-15T06:39:05;97704.06;;;20.87;47.54
50774;BME280;36745;48.544;8.918;2022-07-15T06:42:06;97705.38;;;20.91;47.73
50774;BME280;36745;48.544;8.918;2022-07-15T06:45:07;97715.91;;;21.18;47.53
50774;BME280;36745;48.544;8.918;2022-07-15T06:48:07;97700.84;;;21.44;47.41
50774;BME280;36745;48.544;8.918;2022-07-15T06:51:08;97701.06;;;21.51;46.49
50774;BME280;36745;48.544;8.918;2022-07-15T06:54:09;97694.72;;;21.51;45.90
50774;BME280;36745;48.544;8.918;2022-07-15T06:57:09;97701.34;;;21.59;46.35
50774;BME280;36745;48.544;8.918;2022-07-15T07:00:10;97699.81;;;21.80;46.25
50774;BME280;36745;48.544;8.918;2022-07-15T07:03:12;97696.72;;;21.78;45.96
50774;BME280;36745;48.544;8.918;2022-07-15T07:06:12;97688.56;;;21.80;45.93
50774;BME280;36745;48.544;8.918;2022-07-15T07:09:12;97691.38;;;21.86;45.30
50774;BME280;36745;48.544;8.918;2022-07-15T07:12:13;97688.31;;;21.78;44.60
50774;BME280;36745;48.544;8.918;2022-07-15T07:15:13;97684.47;;;21.92;45.57
50774;BME280;36745;48.544;8.918;2022-07-15T07:18:14;97684.91;;;22.13;44.17
50774;BME280;36745;48.544;8.918;2022-07-15T07:21:14;97683.13;;;22.10;44.00
50774;BME280;36745;48.544;8.918;2022-07-15T07:24:14;97675.25;;;21.97;43.09
50774;BME280;36745;48.544;8.918;2022-07-15T07:27:15;97684.16;;;22.07;42.77
50774;BME280;36745;48.544;8.918;2022-07-15T07:30:15;97689.25;;;22.14;42.17
50774;BME280;36745;48.544;8.918;2022-07-15T07:33:16;97683.56;;;22.31;42.92
50774;BME280;36745;48.544;8.918;2022-07-15T07:36:16;97682.94;;;22.60;42.57
50774;BME280;36745;48.544;8.918;2022-07-15T07:39:17;97684.78;;;22.52;41.20
50774;BME280;36745;48.544;8.918;2022-07-15T07:42:18;97688.34;;;22.58;41.63
50774;BME280;36745;48.544;8.918;2022-07-15T07:45:18;97683.56;;;22.89;41.88
50774;BME280;36745;48.544;8.918;2022-07-15T07:48:19;97685.41;;;23.16;41.21
50774;BME280;36745;48.544;8.918;2022-07-15T07:51:19;97677.47;;;23.14;40.65
50774;BME280;36745;48.544;8.918;2022-07-15T07:54:19;97670.56;;;23.21;40.53
50774;BME280;36745;48.544;8.918;2022-07-15T07:57:20;97672.09;;;23.22;39.82
50774;BME280;36745;48.544;8.918;2022-07-15T08:00:21;97674.84;;;23.28;40.25
50774;BME280;36745;48.544;8.918;2022-07-15T08:03:22;97673.03;;;23.30;38.84
50774;BME280;36745;48.544;8.918;2022-07-15T08:06:23;97667.41;;;23.30;38.86
50774;BME280;36745;48.544;8.918;2022-07-15T08:09:23;97670.34;;;23.08;38.62
50774;BME280;36745;48.544;8.918;2022-07-15T08:12:24;97667.06;;;23.04;37.69
50774;BME280;36745;48.544;8.918;2022-07-15T08:15:24;97673.75;;;23.01;37.75
50774;BME280;36745;48.544;8.918;2022-07-15T08:18:25;97667.19;;;22.81;37.60
50774;BME280;36745;48.544;8.918;2022-07-15T08:21:26;97668.81;;;22.71;37.02
50774;BME280;36745;48.544;8.918;2022-07-15T08:24:26;97661.50;;;22.93;37.32
50774;BME280;36745;48.544;8.918;2022-07-15T08:27:27;97669.66;;;23.02;37.23
50774;BME280;36745;48.544;8.918;2022-07-15T08:30:28;97670.00;;;23.28;37.32
50774;BME280;36745;48.544;8.918;2022-07-15T08:33:29;97665.97;;;23.48;37.28
50774;BME280;36745;48.544;8.918;2022-07-15T08:36:30;97671.09;;;23.74;37.27
50774;BME280;36745;48.544;8.918;2022-07-15T08:39:31;97660.22;;;23.83;36.56
50774;BME280;36745;48.544;8.918;2022-07-15T08:42:31;97672.53;;;23.61;36.17
50774;BME280;36745;48.544;8.918;2022-07-15T08:45:34;97657.25;;;23.76;36.15
50774;BME280;36745;48.544;8.918;2022-07-15T08:48:37;97660.44;;;23.91;36.53
50774;BME280;36745;48.544;8.918;2022-07-15T08:51:43;97663.47;;;24.17;36.32
50774;BME280;36745;48.544;8.918;2022-07-15T08:54:43;97655.59;;;24.34;35.31
50774;BME280;36745;48.544;8.918;2022-07-15T08:57:48;97656.84;;;24.15;35.24
50774;BME280;36745;48.544;8.918;2022-07-15T09:00:49;97657.75;;;24.04;34.38
50774;BME280;36745;48.544;8.918;2022-07-15T09:03:49;97666.13;;;23.85;34.95
50774;BME280;36745;48.544;8.918;2022-07-15T09:06:50;97667.72;;;24.05;35.34
50774;BME280;36745;48.544;8.918;2022-07-15T09:09:51;97663.06;;;24.50;35.44
50774;BME280;36745;48.544;8.918;2022-07-15T09:12:53;97657.22;;;24.67;33.99
50774;BME280;36745;48.544;8.918;2022-07-15T09:15:54;97664.47;;;24.63;34.11
50774;BME280;36745;48.544;8.918;2022-07-15T09:18:55;97661.31;;;24.47;33.80
50774;BME280;36745;48.544;8.918;2022-07-15T09:22:02;97664.63;;;24.27;33.96
50774;BME280;36745;48.544;8.918;2022-07-15T09:25:08;97661.63;;;24.01;33.74
50774;BME280;36745;48.544;8.918;2022-07-15T09:28:09;97661.13;;;24.21;33.93
50774;BME280;36745;48.544;8.918;2022-07-15T09:31:10;97664.88;;;24.29;34.05
50774;BME280;36745;48.544;8.918;2022-07-15T09:34:29;97670.91;;;24.63;33.95
50774;BME280;36745;48.544;8.918;2022-07-15T09:37:30;97664.00;;;24.96;34.26
50774;BME280;36745;48.544;8.918;2022-07-15T09:40:31;97668.84;;;25.14;33.61
50774;BME280;36745;48.544;8.918;2022-07-15T09:43:48;97663.63;;;25.18;33.34
50774;BME280;36745;48.544;8.918;2022-07-15T09:46:58;97668.75;;;25.39;33.50
50774;BME280;36745;48.544;8.918;2022-07-15T09:49:59;97670.81;;;25.19;32.14
50774;BME280;36745;48.544;8.918;2022-07-15T09:53:03;97661.88;;;24.83;32.18
50774;BME280;36745;48.544;8.918;2022-07-15T09:56:07;97668.97;;;24.53;32.65
50774;BME280;36745;48.544;8.918;2022-07-15T09:59:08;97662.78;;;24.73;32.82
50774;BME280;36745;48.544;8.918;2022-07-15T10:02:09;97661.09;;;24.45;32.39
50774;BME280;36745;48.544;8.918;2022-07-15T10:05:10;97656.22;;;24.46;32.78
50774;BME280;36745;48.544;8.918;2022-07-15T10:08:14;97656.69;;;24.69;33.07
50774;BME280;36745;48.544;8.918;2022-07-15T10:11:16;97650.84;;;25.17;32.94
50774;BME280;36745;48.544;8.918;2022-07-15T10:18:07;97640.59;;;25.14;32.07
50774;BME280;36745;48.544;8.918;2022-07-15T10:24:52;97635.13;;;25.35;32.24
50774;BME280;36745;48.544;8.918;2022-07-15T10:28:08;97634.59;;;25.37;31.70
50774;BME280;36745;48.544;8.918;2022-07-15T10:31:19;97636.63;;;25.81;32.24
50774;BME280;36745;48.544;8.918;2022-07-15T10:34:21;97628.78;;;26.40;32.39
50774;BME280;36745;48.544;8.918;2022-07-15T10:37:21;97627.19;;;26.78;32.08
50774;BME280;36745;48.544;8.918;2022-07-15T10:40:22;97622.25;;;26.45;30.62
50774;BME280;36745;48.544;8.918;2022-07-15T10:46:37;97615.88;;;26.05;30.87
50774;BME280;36745;48.544;8.918;2022-07-15T10:49:39;97608.59;;;26.09;30.00
50774;BME280;36745;48.544;8.918;2022-07-15T10:52:39;97605.47;;;26.60;30.76
50774;BME280;36745;48.544;8.918;2022-07-15T10:55:40;97603.41;;;26.47;30.14
50774;BME280;36745;48.544;8.918;2022-07-15T11:02:14;97594.13;;;26.94;29.94
50774;BME280;36745;48.544;8.918;2022-07-15T11:05:20;97598.69;;;26.03;29.66
50774;BME280;36745;48.544;8.918;2022-07-15T11:18:09;97583.09;;;25.44;30.31
50774;BME280;36745;48.544;8.918;2022-07-15T11:21:10;97588.03;;;25.24;30.63
50774;BME280;36745;48.544;8.918;2022-07-15T11:24:11;97593.28;;;25.34;31.12
50774;BME280;36745;48.544;8.918;2022-07-15T11:27:14;97590.81;;;25.43;31.06
50774;BME280;36745;48.544;8.918;2022-07-15T11:30:16;97583.34;;;25.72;31.42
50774;BME280;36745;48.544;8.918;2022-07-15T11:33:17;97581.47;;;25.61;30.67
50774;BME280;36745;48.544;8.918;2022-07-15T11:36:20;97578.41;;;25.46;30.83
50774;BME280;36745;48.544;8.918;2022-07-15T11:39:28;97586.22;;;25.27;31.02
50774;BME280;36745;48.544;8.918;2022-07-15T11:42:31;97577.63;;;25.46;31.20
50774;BME280;36745;48.544;8.918;2022-07-15T11:45:50;97580.50;;;25.72;30.74
50774;BME280;36745;48.544;8.918;2022-07-15T11:48:51;97588.53;;;25.55;30.77
50774;BME280;36745;48.544;8.918;2022-07-15T11:51:51;97583.09;;;25.70;30.52
50774;BME280;36745;48.544;8.918;2022-07-15T11:54:52;97576.03;;;25.77;30.51
50774;BME280;36745;48.544;8.918;2022-07-15T11:57:52;97565.31;;;25.88;30.58
50774;BME280;36745;48.544;8.918;2022-07-15T12:00:53;97578.31;;;25.65;30.56
50774;BME280;36745;48.544;8.918;2022-07-15T12:03:56;97573.31;;;25.71;30.81
50774;BME280;36745;48.544;8.918;2022-07-15T12:06:57;97573.75;;;25.75;30.83
50774;BME280;36745;48.544;8.918;2022-07-15T12:09:58;97568.94;;;25.83;30.22
50774;BME280;36745;48.544;8.918;2022-07-15T12:12:59;97569.22;;;25.98;30.51
50774;BME280;36745;48.544;8.918;2022-07-15T12:16:02;97568.09;;;25.75;30.13
50774;BME280;36745;48.544;8.918;2022-07-15T12:19:09;97560.91;;;25.48;30.62
50774;BME280;36745;48.544;8.918;2022-07-15T12:22:12;97571.78;;;25.83;30.31
50774;BME280;36745;48.544;8.918;2022-07-15T12:25:19;97566.69;;;25.82;30.25
50774;BME280;36745;48.544;8.918;2022-07-15T12:28:31;97563.75;;;26.13;30.45
50774;BME280;36745;48.544;8.918;2022-07-15T12:31:33;97567.00;;;26.18;30.05
50774;BME280;36745;48.544;8.918;2022-07-15T12:37:48;97561.34;;;25.78;30.19
50774;BME280;36745;48.544;8.918;2022-07-15T12:40:49;97575.06;;;25.74;30.35
50774;BME280;36745;48.544;8.918;2022-07-15T12:43:54;97572.00;;;25.59;30.38
50774;BME280;36745;48.544;8.918;2022-07-15T12:47:03;97569.19;;;25.72;30.96
50774;BME280;36745;48.544;8.918;2022-07-15T12:50:04;97573.63;;;25.54;30.39
50774;BME280;36745;48.544;8.918;2022-07-15T12:53:05;97572.41;;;25.37;30.46
50774;BME280;36745;48.544;8.918;2022-07-15T12:56:06;97579.59;;;25.38;30.50
50774;BME280;36745;48.544;8.918;2022-07-15T12:59:06;97560.94;;;25.61;30.97
50774;BME280;36745;48.544;8.918;2022-07-15T13:02:07;97565.47;;;25.38;30.72
50774;BME280;36745;48.544;8.918;2022-07-15T13:05:07;97564.28;;;25.01;31.13
50774;BME280;36745;48.544;8.918;2022-07-15T13:08:28;97570.88;;;25.36;31.50
50774;BME280;36745;48.544;8.918;2022-07-15T13:11:28;97571.09;;;25.24;31.05
50774;BME280;36745;48.544;8.918;2022-07-15T13:14:29;97568.50;;;25.26;30.91
50774;BME280;36745;48.544;8.918;2022-07-15T13:17:29;97564.91;;;25.26;30.99
50774;BME280;36745;48.544;8.918;2022-07-15T13:20:30;97560.91;;;25.48;30.78
50774;BME280;36745;48.544;8.918;2022-07-15T13:23:30;97555.16;;;25.66;30.72
50774;BME280;36745;48.544;8.918;2022-07-15T13:26:31;97558.53;;;25.91;30.83
50774;BME280;36745;48.544;8.918;2022-07-15T13:29:32;97560.06;;;25.92;30.40
50774;BME280;36745;48.544;8.918;2022-07-15T13:32:32;97558.72;;;25.80;30.32
50774;BME280;36745;48.544;8.918;2022-07-15T13:35:33;97549.72;;;26.08;30.98
50774;BME280;36745;48.544;8.918;2022-07-15T13:38:34;97554.13;;;26.30;30.39
50774;BME280;36745;48.544;8.918;2022-07-15T13:41:34;97553.69;;;26.26;30.22
50774;BME280;36745;48.544;8.918;2022-07-15T13:44:35;97561.31;;;26.18;30.42
50774;BME280;36745;48.544;8.918;2022-07-15T13:47:38;97555.47;;;25.89;30.37
50774;BME280;36745;48.544;8.918;2022-07-15T13:50:42;97549.78;;;26.15;30.61
50774;BME280;36745;48.544;8.918;2022-07-15T13:54:01;97552.63;;;26.15;30.45
50774;BME280;36745;48.544;8.918;2022-07-15T13:57:02;97553.84;;;25.81;30.29
50774;BME280;36745;48.544;8.918;2022-07-15T14:00:05;97560.06;;;25.92;30.69
50774;BME280;36745;48.544;8.918;2022-07-15T14:03:08;97560.25;;;25.81;30.18
50774;BME280;36745;48.544;8.918;2022-07-15T14:06:09;97567.22;;;25.67;30.61
50774;BME280;36745;48.544;8.918;2022-07-15T14:09:10;97557.34;;;25.60;30.88
50774;BME280;36745;48.544;8.918;2022-07-15T14:12:10;97556.78;;;25.75;30.74
50774;BME280;36745;48.544;8.918;2022-07-15T14:15:10;97557.44;;;25.81;30.91
50774;BME280;36745;48.544;8.918;2022-07-15T14:18:11;97556.78;;;25.75;30.89
50774;BME280;36745;48.544;8.918;2022-07-15T14:21:13;97564.72;;;25.77;30.86
50774;BME280;36745;48.544;8.918;2022-07-15T14:24:14;97564.97;;;25.92;30.69
50774;BME280;36745;48.544;8.918;2022-07-15T14:27:14;97555.94;;;25.93;30.70
50774;BME280;36745;48.544;8.918;2022-07-15T14:30:15;97569.16;;;25.46;30.77
50774;BME280;36745;48.544;8.918;2022-07-15T14:33:16;97564.19;;;25.65;30.79
50774;BME280;36745;48.544;8.918;2022-07-15T14:36:17;97558.41;;;25.70;30.45
50774;BME280;36745;48.544;8.918;2022-07-15T14:39:17;97560.69;;;25.59;30.58
50774;BME280;36745;48.544;8.918;2022-07-15T14:42:18;97550.16;;;25.59;30.94
50774;BME280;36745;48.544;8.918;2022-07-15T14:45:18;97561.53;;;25.41;30.63
50774;BME280;36745;48.544;8.918;2022-07-15T14:48:19;97547.19;;;25.25;30.92
50774;BME280;36745;48.544;8.918;2022-07-15T14:51:22;97549.31;;;25.19;31.25
50774;BME280;36745;48.544;8.918;2022-07-15T14:54:23;97546.31;;;25.30;31.42
50774;BME280;36745;48.544;8.918;2022-07-15T14:57:23;97552.91;;;25.20;31.31
50774;BME280;36745;48.544;8.918;2022-07-15T15:00:24;97548.44;;;25.11;31.09
50774;BME280;36745;48.544;8.918;2022-07-15T15:03:24;97543.56;;;24.80;31.39
50774;BME280;36745;48.544;8.918;2022-07-15T15:06:25;97543.69;;;24.87;31.51
50774;BME280;36745;48.544;8.918;2022-07-15T15:09:25;97546.69;;;25.08;31.52
50774;BME280;36745;48.544;8.918;2022-07-15T15:12:26;97547.72;;;25.24;31.38
50774;BME280;36745;48.544;8.918;2022-07-15T15:15:26;97548.00;;;25.20;31.41
50774;BME280;36745;48.544;8.918;2022-07-15T15:18:27;97552.97;;;25.33;31.67
50774;BME280;36745;48.544;8.918;2022-07-15T15:21:27;97555.31;;;25.29;31.32
50774;BME280;36745;48.544;8.918;2022-07-15T15:24:45;97554.13;;;25.24;31.16
50774;BME280;36745;48.544;8.918;2022-07-15T15:27:46;97553.66;;;25.07;31.35
50774;BME280;36745;48.544;8.918;2022-07-15T15:30:46;97542.13;;;25.05;31.41
50774;BME280;36745;48.544;8.918;2022-07-15T15:33:47;97548.84;;;25.02;31.38
50774;BME280;36745;48.544;8.918;2022-07-15T15:36:47;97547.28;;;24.88;31.72
50774;BME280;36745;48.544;8.918;2022-07-15T15:39:48;97553.34;;;24.79;31.35
50774;BME280;36745;48.544;8.918;2022-07-15T15:42:49;97551.06;;;24.77;31.65
50774;BME280;36745;48.544;8.918;2022-07-15T15:45:50;97553.63;;;24.75;31.72
50774;BME280;36745;48.544;8.918;2022-07-15T15:48:50;97560.97;;;24.84;31.68
50774;BME280;36745;48.544;8.918;2022-07-15T15:51:51;97557.06;;;24.87;31.85
50774;BME280;36745;48.544;8.918;2022-07-15T15:54:51;97558.81;;;24.90;31.61
50774;BME280;36745;48.544;8.918;2022-07-15T15:57:52;97554.88;;;24.80;31.46
50774;BME280;36745;48.544;8.918;2022-07-15T16:00:52;97558.84;;;24.71;31.37
50774;BME280;36745;48.544;8.918;2022-07-15T16:03:52;97566.78;;;24.73;31.22
50774;BME280;36745;48.544;8.918;2022-07-15T16:06:53;97567.28;;;24.58;31.45
50774;BME280;36745;48.544;8.918;2022-07-15T16:09:53;97559.78;;;24.61;31.23
50774;BME280;36745;48.544;8.918;2022-07-15T16:12:54;97563.81;;;24.46;31.35
50774;BME280;36745;48.544;8.918;2022-07-15T16:15:54;97562.84;;;24.25;31.27
50774;BME280;36745;48.544;8.918;2022-07-15T16:18:55;97563.59;;;24.26;31.54
50774;BME280;36745;48.544;8.918;2022-07-15T16:21:55;97560.91;;;24.33;31.58
50774;BME280;36745;48.544;8.918;2022-07-15T16:25:14;97555.81;;;24.13;31.24
50774;BME280;36745;48.544;8.918;2022-07-15T16:28:14;97555.50;;;23.98;31.50